This is the latest recevied weather packets stored in our database for station/object CE3JSG-13. If no packets are shown the sender has not sent any weather packets the latest 10 day(s).
| Time | Temp. | Humidity | Pressure | Rain* | Wind** | Luminosity | Snow |
|---|---|---|---|---|---|---|---|
| 1777603035 | 15° C | 85% | 1017.2 hPa | - | - | - | - |
| 1777602615 | 15° C | 84% | 1017 hPa | - | - | - | - |
| 1777602195 | 15° C | 83% | 1016.4 hPa | - | - | - | - |
| 1777601775 | 15° C | 84% | 1016.4 hPa | - | - | - | - |
| 1777601355 | 14.44° C | 87% | 1016.4 hPa | - | - | - | - |
| 1777600935 | 14.44° C | 88% | 1016.7 hPa | - | - | - | - |
| 1777600515 | 14.44° C | 89% | 1016.3 hPa | - | - | - | - |
| 1777600098 | 14.44° C | 90% | 1016.2 hPa | - | - | - | - |
| 1777599675 | 14.44° C | 92% | 1016.8 hPa | - | - | - | - |
| 1777599256 | 14.44° C | 90% | 1016.4 hPa | - | - | - | - |
| 1777598835 | 14.44° C | 91% | 1016.4 hPa | - | - | - | - |
| 1777598415 | 14.44° C | 89% | 1017.3 hPa | - | - | - | - |
| 1777597996 | 15.56° C | 86% | 1015.2 hPa | - | - | - | - |
| 1777597575 | 15° C | 90% | 1015.7 hPa | - | - | - | - |
| 1777597155 | 14.44° C | 91% | 1016.5 hPa | - | - | - | - |
| 1777596735 | 15° C | 90% | 1016 hPa | - | - | - | - |
| 1777596315 | 15° C | 90% | 1016 hPa | - | - | - | - |
| 1777595895 | 15° C | 89% | 1015.3 hPa | - | - | - | - |
| 1777595475 | 15° C | 90% | 1015.6 hPa | - | - | - | - |
| 1777595055 | 15° C | 90% | 1015.4 hPa | - | - | - | - |
| 1777594635 | 15° C | 90% | 1015.7 hPa | - | - | - | - |
| 1777594215 | 15° C | 88% | 1015.1 hPa | - | - | - | - |
| 1777593795 | 15° C | 88% | 1014.6 hPa | - | - | - | - |
| 1777593375 | 15° C | 89% | 1015.5 hPa | - | - | - | - |
| 1777592955 | 15.56° C | 85% | 1014.7 hPa | - | - | - | - |
* Rain since midnight (hover to see other rain measurements)
** Current wind speed in m/s (hover to see current wind gust speed)